createdAt,value
2022-11-24T00:00:22.643Z,82.60
2022-11-24T00:02:49.934Z,82.40
2022-11-24T00:05:17.245Z,82.40
2022-11-24T00:07:45.814Z,82.40
2022-11-24T00:10:13.069Z,82.20
2022-11-24T00:12:40.292Z,82.00
2022-11-24T00:15:07.918Z,82.00
2022-11-24T00:17:35.106Z,81.90
2022-11-24T00:20:02.318Z,81.90
2022-11-24T00:22:29.538Z,81.80
2022-11-24T00:24:58.072Z,81.80
2022-11-24T00:27:25.293Z,81.70
2022-11-24T00:29:52.508Z,81.90
2022-11-24T00:32:19.731Z,81.60
2022-11-24T00:34:47.278Z,81.90
2022-11-24T00:37:14.463Z,81.90
2022-11-24T00:39:41.707Z,81.90
2022-11-24T00:42:10.270Z,81.70
2022-11-24T00:44:37.472Z,81.50
2022-11-24T00:47:04.822Z,81.40
2022-11-24T00:49:32.251Z,81.40
2022-11-24T00:51:59.442Z,81.40
2022-11-24T00:54:26.643Z,81.40
2022-11-24T00:56:53.843Z,81.60
2022-11-24T00:59:22.402Z,81.70
2022-11-24T01:01:49.621Z,81.90
2022-11-24T01:04:16.852Z,81.80
2022-11-24T01:06:44.065Z,81.60
2022-11-24T01:09:11.935Z,81.60
2022-11-24T01:11:58.067Z,81.70
2022-11-24T01:14:27.602Z,81.70
2022-11-24T01:16:55.101Z,81.50
2022-11-24T01:19:22.759Z,81.40
2022-11-24T01:21:50.169Z,81.80
2022-11-24T01:24:17.496Z,81.70
2022-11-24T01:26:44.977Z,81.80
2022-11-24T01:29:12.484Z,82.00
2022-11-24T01:31:41.120Z,81.90
2022-11-24T01:34:08.521Z,81.70
2022-11-24T01:36:35.815Z,82.00
2022-11-24T01:39:03.075Z,81.90
2022-11-24T01:41:30.625Z,81.80
2022-11-24T01:43:58.064Z,81.80
2022-11-24T01:46:30.873Z,82.10
2022-11-24T01:49:18.162Z,82.30
2022-11-24T01:51:49.644Z,82.40
2022-11-24T01:54:22.621Z,82.40
2022-11-24T01:56:54.052Z,82.60
2022-11-24T01:59:22.198Z,82.40
2022-11-24T02:01:51.278Z,82.40
2022-11-24T02:04:24.288Z,82.30
2022-11-24T02:06:53.647Z,82.50
2022-11-24T02:09:26.331Z,82.30
2022-11-24T02:11:54.271Z,82.70
2022-11-24T02:14:23.673Z,82.60
2022-11-24T02:16:51.653Z,82.80
2022-11-24T02:19:33.636Z,82.50
2022-11-24T02:22:02.865Z,82.40
2022-11-24T02:24:37.397Z,82.30
2022-11-24T02:27:05.956Z,82.20
2022-11-24T02:29:33.521Z,82.00
2022-11-24T02:32:04.630Z,82.10
2022-11-24T02:34:32.173Z,82.00
2022-11-24T02:36:59.665Z,82.00
2022-11-24T02:39:26.920Z,82.20
2022-11-24T02:41:58.652Z,82.10
2022-11-24T02:44:32.525Z,82.30
2022-11-24T02:47:05.283Z,82.60
2022-11-24T02:49:32.734Z,82.60
2022-11-24T02:52:00.238Z,82.40
2022-11-24T02:54:27.491Z,82.50
2022-11-24T02:56:54.886Z,83.00
2022-11-24T02:59:22.246Z,82.80
2022-11-24T03:01:50.930Z,82.60
2022-11-24T03:04:18.353Z,82.70
2022-11-24T03:06:45.575Z,82.80
2022-11-24T03:09:12.843Z,82.70
2022-11-24T03:11:41.052Z,82.60
2022-11-24T03:14:08.868Z,82.90
2022-11-24T03:16:36.461Z,82.80
2022-11-24T03:19:05.312Z,82.80
2022-11-24T03:21:32.585Z,82.50
2022-11-24T03:24:00.223Z,82.80
2022-11-24T03:26:27.865Z,82.90
2022-11-24T03:28:56.199Z,82.70
2022-11-24T03:31:24.141Z,83.00
2022-11-24T03:33:51.446Z,82.90
2022-11-24T03:36:19.968Z,83.20
2022-11-24T03:38:47.177Z,82.90
2022-11-24T03:41:14.401Z,83.10
2022-11-24T03:43:43.934Z,83.10
2022-11-24T03:46:12.705Z,83.20
2022-11-24T03:48:40.272Z,83.10
2022-11-24T03:51:07.541Z,82.80
2022-11-24T03:53:36.217Z,82.80
2022-11-24T03:56:03.872Z,82.80
2022-11-24T03:58:31.578Z,82.60
2022-11-24T04:00:58.932Z,82.60
2022-11-24T04:03:26.324Z,82.80
2022-11-24T04:05:53.629Z,82.60
2022-11-24T04:08:21.227Z,82.60
2022-11-24T04:10:52.483Z,82.30
2022-11-24T04:13:21.660Z,82.70
2022-11-24T04:15:49.039Z,82.90
2022-11-24T04:18:16.364Z,83.10
2022-11-24T04:20:44.204Z,83.20
2022-11-24T04:23:11.492Z,83.30
2022-11-24T04:25:38.972Z,83.40
2022-11-24T04:28:07.964Z,83.20
2022-11-24T04:30:36.123Z,83.00
2022-11-24T04:33:03.363Z,83.20
2022-11-24T04:35:30.672Z,83.10
2022-11-24T04:38:01.553Z,83.50
2022-11-24T04:40:28.809Z,83.50
2022-11-24T04:42:56.649Z,83.50
2022-11-24T04:45:25.305Z,83.40
2022-11-24T04:47:52.627Z,83.30
2022-11-24T04:50:19.868Z,83.00
2022-11-24T04:52:47.047Z,82.80
2022-11-24T04:55:14.330Z,83.00
2022-11-24T04:57:41.607Z,82.90
2022-11-24T05:00:10.460Z,83.20
2022-11-24T05:02:39.167Z,83.30
2022-11-24T05:05:07.573Z,83.50
2022-11-24T05:07:34.888Z,83.50
2022-11-24T05:10:20.878Z,83.10
2022-11-24T05:12:54.075Z,82.70
2022-11-24T05:15:21.304Z,82.60
2022-11-24T05:17:49.842Z,82.60
2022-11-24T05:20:18.177Z,82.70
2022-11-24T05:22:45.419Z,82.70
2022-11-24T05:25:14.226Z,82.70
2022-11-24T05:27:41.471Z,82.50
2022-11-24T05:30:09.458Z,82.40
2022-11-24T05:32:36.680Z,82.30
2022-11-24T05:35:06.624Z,82.40
2022-11-24T05:37:33.868Z,82.10
2022-11-24T05:40:01.067Z,82.50
2022-11-24T05:42:46.255Z,82.40
2022-11-24T05:45:16.538Z,82.30
2022-11-24T05:47:44.034Z,82.50
2022-11-24T05:50:14.840Z,82.40
2022-11-24T05:52:42.065Z,82.10
2022-11-24T05:55:10.684Z,82.40
2022-11-24T05:57:38.002Z,82.20
2022-11-24T06:00:07.146Z,81.90
2022-11-24T06:02:40.051Z,82.10
2022-11-24T06:05:08.298Z,82.40
2022-11-24T06:07:36.920Z,82.10
2022-11-24T06:10:04.959Z,82.40
2022-11-24T06:12:32.157Z,82.30
2022-11-24T06:14:59.374Z,82.50
2022-11-24T06:17:26.648Z,82.80
2022-11-24T06:19:53.946Z,82.40
2022-11-24T06:22:21.258Z,82.30
2022-11-24T06:24:51.080Z,82.00
2022-11-24T06:27:18.904Z,82.20
2022-11-24T06:29:46.165Z,82.80
2022-11-24T06:32:13.384Z,82.90
2022-11-24T06:34:40.928Z,83.00
2022-11-24T06:37:08.504Z,82.80
2022-11-24T06:39:35.782Z,82.70
2022-11-24T06:42:04.431Z,82.70
2022-11-24T06:44:31.833Z,82.80
2022-11-24T06:46:59.326Z,82.90
2022-11-24T06:49:26.541Z,82.70
2022-11-24T06:51:54.486Z,82.90
2022-11-24T06:54:22.123Z,82.80
2022-11-24T06:56:49.343Z,82.60
2022-11-24T06:59:19.991Z,82.50
2022-11-24T07:01:47.512Z,82.40
2022-11-24T07:04:15.139Z,82.10
2022-11-24T07:06:42.673Z,82.20
2022-11-24T07:09:10.465Z,82.40
2022-11-24T07:11:37.975Z,82.50
2022-11-24T07:14:05.979Z,82.60
2022-11-24T07:16:34.708Z,82.60
2022-11-24T07:19:02.214Z,82.70
2022-11-24T07:21:30.666Z,82.50
2022-11-24T07:23:58.422Z,82.20
2022-11-24T07:26:26.297Z,82.30
2022-11-24T07:28:53.603Z,82.30
2022-11-24T07:31:24.745Z,82.30
2022-11-24T07:33:55.158Z,82.50
2022-11-24T07:36:22.897Z,82.40
2022-11-24T07:38:50.543Z,82.20
2022-11-24T07:41:22.065Z,82.30
2022-11-24T07:43:49.480Z,82.40
2022-11-24T07:46:19.468Z,82.40
2022-11-24T07:48:47.351Z,82.30
2022-11-24T07:51:16.027Z,82.20
2022-11-24T07:53:43.730Z,82.10
2022-11-24T07:56:11.126Z,81.90
2022-11-24T07:58:38.446Z,81.70
2022-11-24T08:01:11.267Z,81.50
2022-11-24T08:03:38.746Z,81.40
2022-11-24T08:08:55.004Z,81.20
2022-11-24T08:11:22.935Z,81.20
2022-11-24T08:13:50.168Z,81.20
2022-11-24T08:16:19.066Z,81.00
2022-11-24T08:18:50.196Z,81.00
2022-11-24T08:21:17.762Z,81.10
2022-11-24T08:23:44.981Z,81.10
2022-11-24T08:26:17.403Z,80.80
2022-11-24T08:28:45.446Z,81.30
2022-11-24T08:31:14.533Z,81.30
2022-11-24T08:33:42.637Z,81.10
2022-11-24T08:36:11.950Z,81.10
2022-11-24T08:38:39.818Z,81.10
2022-11-24T08:41:09.752Z,81.00
2022-11-24T08:43:38.439Z,81.00
2022-11-24T08:46:07.643Z,80.90
2022-11-24T08:48:35.537Z,80.90
2022-11-24T08:51:07.629Z,80.70
2022-11-24T08:53:34.803Z,80.80
2022-11-24T08:56:03.511Z,81.00
2022-11-24T08:58:31.693Z,80.90
2022-11-24T09:01:05.639Z,80.70
2022-11-24T09:03:33.054Z,80.60
2022-11-24T09:06:01.153Z,80.60
2022-11-24T09:08:29.430Z,80.60
2022-11-24T09:10:59.622Z,80.60
2022-11-24T09:13:26.855Z,80.70
2022-11-24T09:15:54.116Z,80.70
2022-11-24T09:18:27.501Z,80.60
2022-11-24T09:21:06.299Z,80.60
2022-11-24T09:23:33.622Z,80.50
2022-11-24T09:26:04.608Z,80.50
2022-11-24T09:28:31.836Z,80.40
2022-11-24T09:31:01.027Z,80.60
2022-11-24T09:33:31.575Z,80.50
2022-11-24T09:35:58.880Z,80.60
2022-11-24T09:38:26.357Z,80.50
2022-11-24T09:40:56.375Z,80.60
2022-11-24T09:43:35.831Z,80.40
2022-11-24T09:46:08.925Z,80.30
2022-11-24T09:48:40.706Z,80.50
2022-11-24T09:51:11.968Z,80.40
2022-11-24T09:53:46.606Z,80.40
2022-11-24T09:56:20.860Z,80.50
2022-11-24T09:58:50.641Z,80.50
2022-11-24T10:01:20.598Z,80.50
2022-11-24T10:03:51.874Z,80.70
2022-11-24T10:06:25.609Z,80.50
2022-11-24T10:09:19.006Z,80.10
2022-11-24T10:11:57.470Z,80.10
2022-11-24T10:14:41.706Z,80.20
2022-11-24T10:17:23.044Z,80.10
2022-11-24T10:19:57.836Z,80.00
2022-11-24T10:22:39.716Z,80.00
2022-11-24T10:25:18.653Z,79.70
2022-11-24T10:27:49.297Z,79.70
2022-11-24T10:30:18.939Z,79.90
2022-11-24T10:32:48.593Z,79.40
2022-11-24T10:35:19.604Z,79.40
2022-11-24T10:37:55.918Z,79.20
2022-11-24T10:40:55.921Z,79.00
2022-11-24T10:43:20.735Z,78.60
2022-11-24T10:45:48.404Z,78.50
2022-11-24T10:48:21.882Z,78.30
2022-11-24T10:50:54.341Z,78.00
2022-11-24T10:53:26.749Z,77.40
2022-11-24T10:56:02.155Z,77.10
2022-11-24T10:58:36.028Z,77.10
2022-11-24T11:01:21.111Z,77.00
2022-11-24T11:03:50.922Z,76.50
2022-11-24T11:06:24.034Z,76.30
2022-11-24T11:09:17.566Z,76.10
2022-11-24T11:11:48.258Z,75.70
2022-11-24T11:14:30.407Z,75.60
2022-11-24T11:16:58.060Z,76.10
2022-11-24T11:19:48.331Z,76.10
2022-11-24T11:22:23.793Z,75.50
2022-11-24T11:25:07.506Z,74.90
2022-11-24T11:27:34.707Z,75.00
2022-11-24T11:36:10.830Z,73.70
2022-11-24T11:38:40.300Z,73.20
2022-11-24T11:41:17.044Z,72.80
2022-11-24T11:43:46.535Z,73.10
2022-11-24T11:46:16.598Z,72.90
2022-11-24T11:48:46.572Z,73.00
2022-11-24T11:51:32.453Z,72.40
2022-11-24T11:54:07.928Z,72.70
2022-11-24T11:56:37.414Z,72.30
2022-11-24T11:59:28.140Z,72.10
2022-11-24T12:02:28.311Z,71.80
2022-11-24T12:04:59.390Z,72.50
2022-11-24T12:07:47.806Z,72.30
2022-11-24T12:10:26.005Z,72.00
2022-11-24T12:13:10.246Z,72.10
2022-11-24T12:15:41.269Z,72.10
2022-11-24T12:18:48.695Z,71.30
2022-11-24T12:21:15.439Z,71.20
2022-11-24T12:23:55.035Z,71.00
2022-11-24T12:26:33.185Z,70.20
2022-11-24T12:29:17.736Z,69.20
2022-11-24T12:31:52.408Z,69.00
2022-11-24T12:34:30.582Z,69.00
2022-11-24T12:37:11.951Z,68.60
2022-11-24T12:39:45.981Z,67.90
2022-11-24T12:42:26.660Z,66.90
2022-11-24T12:45:13.163Z,66.50
2022-11-24T12:47:57.605Z,65.00
2022-11-24T12:50:27.245Z,65.30
2022-11-24T12:53:00.823Z,65.30
2022-11-24T12:55:29.807Z,66.10
2022-11-24T12:58:10.989Z,65.70
2022-11-24T13:00:47.456Z,66.90
2022-11-24T13:03:26.931Z,66.50
2022-11-24T13:06:00.465Z,66.50
2022-11-24T13:08:29.606Z,66.70
2022-11-24T13:11:38.916Z,66.80
2022-11-24T13:14:11.886Z,65.90
2022-11-24T13:17:21.707Z,66.40
2022-11-24T13:19:40.392Z,66.60
2022-11-24T13:22:16.735Z,67.10
2022-11-24T13:24:45.108Z,67.50
2022-11-24T13:27:42.552Z,67.40
2022-11-24T13:30:48.585Z,67.30
2022-11-24T13:33:29.175Z,67.50
2022-11-24T13:36:41.268Z,67.80
2022-11-24T13:39:20.277Z,67.70
2022-11-24T13:42:08.280Z,67.70
2022-11-24T13:45:01.661Z,68.30
2022-11-24T13:47:37.915Z,68.50
2022-11-24T13:50:08.119Z,68.20
2022-11-24T13:52:42.518Z,68.40
2022-11-24T13:55:23.351Z,68.70
2022-11-24T13:57:53.169Z,69.20
2022-11-24T14:00:24.524Z,69.50
2022-11-24T14:02:54.131Z,69.80
2022-11-24T14:05:24.213Z,70.00
2022-11-24T14:07:53.141Z,70.10
2022-11-24T14:10:23.271Z,70.30
2022-11-24T14:13:23.886Z,70.30
2022-11-24T14:16:01.457Z,70.60
2022-11-24T14:18:29.216Z,70.60
2022-11-24T14:20:56.772Z,70.70
2022-11-24T14:23:24.156Z,70.70
2022-11-24T14:25:52.776Z,70.80
2022-11-24T14:28:23.412Z,71.10
2022-11-24T14:30:51.115Z,71.10
2022-11-24T14:33:20.468Z,71.20
2022-11-24T14:35:50.834Z,71.30
2022-11-24T14:38:18.090Z,71.40
2022-11-24T14:40:48.205Z,71.50
2022-11-24T14:43:23.952Z,71.70
2022-11-24T14:45:53.989Z,71.70
2022-11-24T14:48:26.444Z,71.80
2022-11-24T14:51:04.919Z,71.80
2022-11-24T14:53:32.355Z,72.00
2022-11-24T14:56:23.124Z,72.20
2022-11-24T14:58:51.022Z,72.40
2022-11-24T15:01:32.877Z,72.30
2022-11-24T15:04:46.335Z,72.50
2022-11-24T15:07:14.579Z,72.70
2022-11-24T15:09:50.711Z,72.80
2022-11-24T15:12:28.545Z,72.90
2022-11-24T15:15:00.127Z,73.20
2022-11-24T15:17:29.188Z,73.50
2022-11-24T15:20:01.199Z,73.90
2022-11-24T15:22:36.759Z,73.80
2022-11-24T15:25:19.413Z,73.60
2022-11-24T15:27:46.594Z,73.80
2022-11-24T15:30:14.116Z,74.00
2022-11-24T15:32:48.991Z,74.10
2022-11-24T15:35:17.644Z,74.40
2022-11-24T15:37:44.958Z,74.60
2022-11-24T15:40:13.091Z,74.80
2022-11-24T15:42:40.686Z,74.70
2022-11-24T15:45:09.948Z,74.70
2022-11-24T15:47:37.168Z,74.80
2022-11-24T15:50:05.479Z,75.20
2022-11-24T15:52:34.222Z,75.20
2022-11-24T15:55:01.672Z,75.30
2022-11-24T15:57:28.859Z,75.40
2022-11-24T15:59:56.040Z,75.50
2022-11-24T16:02:23.457Z,75.80
2022-11-24T16:04:51.219Z,75.90
2022-11-24T16:07:18.542Z,75.90
2022-11-24T16:09:47.128Z,75.90
2022-11-24T16:12:14.332Z,75.90
2022-11-24T16:14:41.557Z,76.00
2022-11-24T16:17:08.788Z,75.80
2022-11-24T16:19:41.673Z,76.00
2022-11-24T16:22:09.276Z,76.10
2022-11-24T16:24:36.732Z,76.10
2022-11-24T16:27:05.402Z,76.10
2022-11-24T16:29:38.058Z,76.00
2022-11-24T16:32:06.198Z,76.10
2022-11-24T16:34:33.718Z,76.10
2022-11-24T16:37:01.210Z,76.20
2022-11-24T16:39:28.401Z,76.20
2022-11-24T16:41:55.611Z,76.50
2022-11-24T16:44:24.127Z,76.60
2022-11-24T16:46:51.333Z,76.50
2022-11-24T16:49:18.822Z,76.60
2022-11-24T16:51:45.992Z,76.70
2022-11-24T16:54:13.488Z,76.80
2022-11-24T16:56:40.727Z,76.80
2022-11-24T16:59:08.104Z,76.70
2022-11-24T17:01:37.173Z,76.50
2022-11-24T17:04:09.503Z,76.90
2022-11-24T17:06:39.969Z,76.80
2022-11-24T17:09:07.280Z,76.80
2022-11-24T17:11:34.762Z,76.50
2022-11-24T17:14:02.923Z,76.70
2022-11-24T17:16:30.615Z,76.50
2022-11-24T17:18:59.746Z,76.50
2022-11-24T17:21:28.114Z,76.40
2022-11-24T17:23:56.532Z,76.30
2022-11-24T17:26:24.977Z,76.40
2022-11-24T17:28:52.650Z,76.50
2022-11-24T17:31:22.246Z,76.30
2022-11-24T17:33:50.238Z,76.20
2022-11-24T17:36:19.337Z,76.10
2022-11-24T17:38:48.956Z,76.30
2022-11-24T17:41:16.204Z,76.50
2022-11-24T17:43:43.585Z,76.50
2022-11-24T17:46:10.877Z,76.60
2022-11-24T17:48:38.174Z,76.90
2022-11-24T17:51:09.863Z,76.90
2022-11-24T17:53:39.604Z,77.00
2022-11-24T17:56:07.626Z,77.10
2022-11-24T17:58:41.336Z,77.20
2022-11-24T18:01:11.112Z,77.50
2022-11-24T18:03:39.381Z,77.40
2022-11-24T18:06:08.862Z,77.60
2022-11-24T18:08:38.920Z,77.80
2022-11-24T18:11:07.613Z,77.60
2022-11-24T18:13:55.731Z,77.60
2022-11-24T18:16:22.334Z,77.80
2022-11-24T18:19:05.069Z,77.80
2022-11-24T18:21:36.113Z,77.70
2022-11-24T18:24:05.002Z,77.70
2022-11-24T18:26:32.170Z,77.60
2022-11-24T18:28:59.870Z,77.50
2022-11-24T18:31:27.278Z,77.60
2022-11-24T18:33:54.543Z,77.70
2022-11-24T18:36:28.347Z,77.50
2022-11-24T18:38:57.482Z,77.50
2022-11-24T18:41:26.011Z,77.50
2022-11-24T18:43:53.407Z,77.50
2022-11-24T18:46:20.732Z,77.70
2022-11-24T18:48:48.071Z,77.70
2022-11-24T18:51:15.324Z,77.60
2022-11-24T18:53:43.767Z,77.60
2022-11-24T18:56:13.126Z,77.40
2022-11-24T18:58:42.427Z,77.40
2022-11-24T19:01:11.935Z,77.50
2022-11-24T19:03:46.564Z,77.50
2022-11-24T19:06:18.946Z,77.40
2022-11-24T19:08:46.752Z,77.60
2022-11-24T19:11:18.107Z,77.80
2022-11-24T19:13:47.652Z,77.80
2022-11-24T19:16:15.631Z,77.80
2022-11-24T19:18:42.921Z,77.90
2022-11-24T19:21:10.199Z,77.70
2022-11-24T19:23:37.496Z,77.70
2022-11-24T19:26:05.898Z,77.50
2022-11-24T19:28:33.517Z,77.40
2022-11-24T19:31:03.418Z,77.40
2022-11-24T19:33:31.445Z,77.50
2022-11-24T19:36:02.626Z,77.50
2022-11-24T19:38:30.557Z,77.50
2022-11-24T19:41:02.111Z,77.60
2022-11-24T19:43:29.925Z,77.70
2022-11-24T19:46:02.007Z,77.70
2022-11-24T19:48:32.976Z,78.10
2022-11-24T19:51:01.009Z,78.20
2022-11-24T19:53:28.907Z,78.10
2022-11-24T19:56:02.331Z,77.90
2022-11-24T19:58:29.579Z,77.90
2022-11-24T20:00:56.812Z,77.80
2022-11-24T20:03:25.338Z,77.90
2022-11-24T20:05:55.109Z,77.90
2022-11-24T20:08:22.334Z,77.90
2022-11-24T20:10:49.564Z,77.90
2022-11-24T20:13:16.762Z,77.90
2022-11-24T20:15:43.966Z,77.90
2022-11-24T20:18:11.209Z,77.80
2022-11-24T20:20:41.973Z,77.70
2022-11-24T20:23:09.184Z,78.10
2022-11-24T20:25:36.945Z,78.00
2022-11-24T20:28:04.553Z,78.30
2022-11-24T20:30:32.777Z,78.80
2022-11-24T20:33:00.167Z,79.50
2022-11-24T20:35:27.352Z,79.50
2022-11-24T20:37:57.285Z,80.30
2022-11-24T20:40:24.461Z,80.90
2022-11-24T20:42:51.653Z,81.70
2022-11-24T20:45:18.864Z,81.50
2022-11-24T20:47:46.045Z,82.00
2022-11-24T20:50:13.212Z,82.50
2022-11-24T20:52:40.414Z,83.00
2022-11-24T20:55:10.126Z,83.40
2022-11-24T20:57:37.343Z,83.20
2022-11-24T21:00:05.987Z,83.50
2022-11-24T21:02:33.250Z,83.50
2022-11-24T21:05:00.566Z,84.00
2022-11-24T21:07:27.808Z,84.20
2022-11-24T21:09:55.024Z,83.80
2022-11-24T21:12:23.513Z,83.60
2022-11-24T21:14:50.744Z,83.20
2022-11-24T21:17:17.943Z,83.00
2022-11-24T21:19:45.248Z,83.30
2022-11-24T21:22:12.551Z,82.90
2022-11-24T21:24:39.744Z,82.40
2022-11-24T21:27:06.954Z,82.00
2022-11-24T21:29:35.463Z,81.70
2022-11-24T21:32:02.854Z,81.50
2022-11-24T21:34:30.110Z,81.30
2022-11-24T21:36:57.315Z,81.50
2022-11-24T21:39:24.590Z,81.30
2022-11-24T21:41:51.816Z,81.30
2022-11-24T21:44:19.051Z,81.20
2022-11-24T21:46:52.644Z,81.20
2022-11-24T21:49:22.907Z,81.10
2022-11-24T21:51:55.148Z,80.80
2022-11-24T21:54:22.493Z,80.60
2022-11-24T21:56:49.702Z,80.70
2022-11-24T21:59:16.897Z,80.70
2022-11-24T22:01:44.099Z,80.60
2022-11-24T22:04:12.633Z,80.60
2022-11-24T22:06:39.821Z,80.70
2022-11-24T22:09:07.007Z,81.10
2022-11-24T22:11:34.178Z,81.00
2022-11-24T22:14:01.391Z,80.80
2022-11-24T22:16:28.846Z,80.50
2022-11-24T22:18:56.086Z,80.40
2022-11-24T22:21:29.978Z,80.20
2022-11-24T22:23:57.599Z,80.30
2022-11-24T22:26:26.090Z,80.30
2022-11-24T22:28:53.922Z,80.40
2022-11-24T22:31:23.280Z,80.40
2022-11-24T22:33:51.331Z,80.20
2022-11-24T22:36:23.549Z,80.20
2022-11-24T22:38:54.886Z,80.30
2022-11-24T22:41:22.677Z,80.20
2022-11-24T22:43:50.322Z,80.30
2022-11-24T22:46:19.057Z,80.30
2022-11-24T22:48:47.530Z,80.20
2022-11-24T22:51:16.913Z,80.10
2022-11-24T22:53:47.488Z,80.30
2022-11-24T22:56:16.585Z,80.40
2022-11-24T22:58:44.034Z,80.50
2022-11-24T23:01:13.284Z,80.30
2022-11-24T23:03:41.010Z,80.30
2022-11-24T23:06:11.614Z,80.50
2022-11-24T23:08:39.459Z,80.30
2022-11-24T23:11:08.271Z,80.40
2022-11-24T23:13:37.740Z,80.40
2022-11-24T23:16:07.275Z,80.40
2022-11-24T23:18:34.765Z,80.40
2022-11-24T23:21:06.786Z,80.40
2022-11-24T23:23:35.248Z,80.50
2022-11-24T23:26:03.673Z,80.50
2022-11-24T23:28:31.412Z,80.40
2022-11-24T23:31:04.025Z,80.40
2022-11-24T23:33:31.642Z,80.50
2022-11-24T23:36:00.312Z,80.30
2022-11-24T23:38:32.446Z,80.60
2022-11-24T23:41:01.012Z,80.80
2022-11-24T23:43:28.210Z,80.90
2022-11-24T23:45:55.509Z,80.80
2022-11-24T23:48:24.060Z,80.90
2022-11-24T23:50:51.241Z,80.80
2022-11-24T23:53:18.447Z,80.60
2022-11-24T23:55:52.979Z,80.60
2022-11-24T23:58:20.183Z,80.70
